sensor_id;sensor_type;location;lat;lon;timestamp;pressure;altitude;pressure_sealevel;temperature
28803;BMP280;15949;55.656;37.422;2023-01-20T00:01:39;99391.94;;;1.40
28803;BMP280;15949;55.656;37.422;2023-01-20T00:06:47;99406.63;;;1.35
28803;BMP280;15949;55.656;37.422;2023-01-20T00:11:53;99405.53;;;1.41
28803;BMP280;15949;55.656;37.422;2023-01-20T00:16:58;99405.28;;;1.42
28803;BMP280;15949;55.656;37.422;2023-01-20T00:22:04;99402.72;;;1.42
28803;BMP280;15949;55.656;37.422;2023-01-20T00:27:10;99410.09;;;1.49
28803;BMP280;15949;55.656;37.422;2023-01-20T00:32:15;99406.50;;;1.50
28803;BMP280;15949;55.656;37.422;2023-01-20T00:37:21;99408.31;;;1.49
28803;BMP280;15949;55.656;37.422;2023-01-20T00:42:26;99408.06;;;1.51
28803;BMP280;15949;55.656;37.422;2023-01-20T00:47:32;99402.38;;;1.54
28803;BMP280;15949;55.656;37.422;2023-01-20T00:52:37;99407.03;;;1.52
28803;BMP280;15949;55.656;37.422;2023-01-20T00:57:43;99398.00;;;1.54
28803;BMP280;15949;55.656;37.422;2023-01-20T01:02:48;99418.56;;;1.54
28803;BMP280;15949;55.656;37.422;2023-01-20T01:07:54;99411.09;;;1.58
28803;BMP280;15949;55.656;37.422;2023-01-20T01:13:01;99391.06;;;1.60
28803;BMP280;15949;55.656;37.422;2023-01-20T01:18:06;99402.59;;;1.63
28803;BMP280;15949;55.656;37.422;2023-01-20T01:23:12;99408.50;;;1.63
28803;BMP280;15949;55.656;37.422;2023-01-20T01:28:18;99413.63;;;1.63
28803;BMP280;15949;55.656;37.422;2023-01-20T01:33:23;99408.28;;;1.60
28803;BMP280;15949;55.656;37.422;2023-01-20T01:38:29;99399.53;;;1.61
28803;BMP280;15949;55.656;37.422;2023-01-20T01:43:36;99405.94;;;1.63
28803;BMP280;15949;55.656;37.422;2023-01-20T01:48:43;99407.72;;;1.63
28803;BMP280;15949;55.656;37.422;2023-01-20T01:53:54;99403.91;;;1.60
28803;BMP280;15949;55.656;37.422;2023-01-20T01:59:02;99414.41;;;1.64
28803;BMP280;15949;55.656;37.422;2023-01-20T02:04:10;99406.66;;;1.69
28803;BMP280;15949;55.656;37.422;2023-01-20T02:09:16;99391.78;;;1.66
28803;BMP280;15949;55.656;37.422;2023-01-20T02:14:35;99399.50;;;1.66
28803;BMP280;15949;55.656;37.422;2023-01-20T02:36:33;99415.19;;;1.59
28803;BMP280;15949;55.656;37.422;2023-01-20T02:42:09;99409.84;;;1.56
28803;BMP280;15949;55.656;37.422;2023-01-20T02:47:19;99409.03;;;1.60
28803;BMP280;15949;55.656;37.422;2023-01-20T02:52:35;99418.00;;;1.63
28803;BMP280;15949;55.656;37.422;2023-01-20T02:57:45;99423.16;;;1.63
28803;BMP280;15949;55.656;37.422;2023-01-20T03:02:53;99427.00;;;1.65
28803;BMP280;15949;55.656;37.422;2023-01-20T03:08:01;99437.28;;;1.65
28803;BMP280;15949;55.656;37.422;2023-01-20T03:13:13;99443.94;;;1.66
28803;BMP280;15949;55.656;37.422;2023-01-20T03:18:20;99442.88;;;1.67
28803;BMP280;15949;55.656;37.422;2023-01-20T03:23:27;99445.44;;;1.67
28803;BMP280;15949;55.656;37.422;2023-01-20T03:28:34;99446.72;;;1.70
28803;BMP280;15949;55.656;37.422;2023-01-20T03:33:42;99453.91;;;1.73
28803;BMP280;15949;55.656;37.422;2023-01-20T03:38:48;99467.00;;;1.71
28803;BMP280;15949;55.656;37.422;2023-01-20T03:44:13;99474.22;;;1.69
28803;BMP280;15949;55.656;37.422;2023-01-20T03:54:53;99466.00;;;1.67
28803;BMP280;15949;55.656;37.422;2023-01-20T04:00:03;99463.94;;;1.69
28803;BMP280;15949;55.656;37.422;2023-01-20T04:05:11;99464.19;;;1.73
28803;BMP280;15949;55.656;37.422;2023-01-20T04:10:17;99468.81;;;1.71
28803;BMP280;15949;55.656;37.422;2023-01-20T04:15:24;99469.06;;;1.69
28803;BMP280;15949;55.656;37.422;2023-01-20T04:20:31;99465.47;;;1.70
28803;BMP280;15949;55.656;37.422;2023-01-20T04:25:36;99469.56;;;1.71
28803;BMP280;15949;55.656;37.422;2023-01-20T04:30:42;99487.31;;;1.73
28803;BMP280;15949;55.656;37.422;2023-01-20T04:35:47;99486.03;;;1.75
28803;BMP280;15949;55.656;37.422;2023-01-20T04:40:53;99487.28;;;1.78
28803;BMP280;15949;55.656;37.422;2023-01-20T04:45:59;99499.88;;;1.79
28803;BMP280;15949;55.656;37.422;2023-01-20T04:51:05;99493.69;;;1.80
28803;BMP280;15949;55.656;37.422;2023-01-20T04:56:12;99492.94;;;1.80
28803;BMP280;15949;55.656;37.422;2023-01-20T05:01:18;99508.59;;;1.78
28803;BMP280;15949;55.656;37.422;2023-01-20T05:06:23;99506.28;;;1.82
28803;BMP280;15949;55.656;37.422;2023-01-20T05:11:29;99512.97;;;1.83
28803;BMP280;15949;55.656;37.422;2023-01-20T05:16:35;99509.09;;;1.80
28803;BMP280;15949;55.656;37.422;2023-01-20T05:21:40;99508.06;;;1.81
28803;BMP280;15949;55.656;37.422;2023-01-20T05:26:46;99515.78;;;1.81
28803;BMP280;15949;55.656;37.422;2023-01-20T05:31:52;99509.63;;;1.82
28803;BMP280;15949;55.656;37.422;2023-01-20T05:36:57;99510.63;;;1.81
28803;BMP280;15949;55.656;37.422;2023-01-20T05:42:03;99514.75;;;1.82
28803;BMP280;15949;55.656;37.422;2023-01-20T05:47:09;99513.22;;;1.81
28803;BMP280;15949;55.656;37.422;2023-01-20T05:52:14;99519.66;;;1.79
28803;BMP280;15949;55.656;37.422;2023-01-20T05:57:23;99529.69;;;1.75
28803;BMP280;15949;55.656;37.422;2023-01-20T06:02:30;99526.06;;;1.76
28803;BMP280;15949;55.656;37.422;2023-01-20T06:07:35;99524.28;;;1.77
28803;BMP280;15949;55.656;37.422;2023-01-20T06:12:41;99539.44;;;1.73
28803;BMP280;15949;55.656;37.422;2023-01-20T06:17:46;99538.91;;;1.76
28803;BMP280;15949;55.656;37.422;2023-01-20T06:22:55;99542.25;;;1.77
28803;BMP280;15949;55.656;37.422;2023-01-20T06:28:01;99553.31;;;1.77
28803;BMP280;15949;55.656;37.422;2023-01-20T06:33:06;99564.59;;;1.81
28803;BMP280;15949;55.656;37.422;2023-01-20T06:38:14;99563.06;;;1.80
28803;BMP280;15949;55.656;37.422;2023-01-20T06:43:20;99569.75;;;1.81
28803;BMP280;15949;55.656;37.422;2023-01-20T06:48:26;99582.06;;;1.84
28803;BMP280;15949;55.656;37.422;2023-01-20T06:53:32;99600.00;;;1.89
28803;BMP280;15949;55.656;37.422;2023-01-20T06:58:38;99609.78;;;1.87
28803;BMP280;15949;55.656;37.422;2023-01-20T07:03:44;99614.41;;;1.90
28803;BMP280;15949;55.656;37.422;2023-01-20T07:08:50;99613.63;;;1.90
28803;BMP280;15949;55.656;37.422;2023-01-20T07:13:56;99613.91;;;1.88
28803;BMP280;15949;55.656;37.422;2023-01-20T07:19:01;99620.84;;;1.88
28803;BMP280;15949;55.656;37.422;2023-01-20T07:24:08;99623.91;;;1.90
28803;BMP280;15949;55.656;37.422;2023-01-20T07:29:13;99633.41;;;1.94
28803;BMP280;15949;55.656;37.422;2023-01-20T07:34:19;99631.34;;;1.91
28803;BMP280;15949;55.656;37.422;2023-01-20T07:39:24;99624.19;;;1.93
28803;BMP280;15949;55.656;37.422;2023-01-20T07:44:31;99620.81;;;1.98
28803;BMP280;15949;55.656;37.422;2023-01-20T07:49:37;99620.56;;;1.94
28803;BMP280;15949;55.656;37.422;2023-01-20T07:54:42;99614.84;;;2.02
28803;BMP280;15949;55.656;37.422;2023-01-20T07:59:48;99613.31;;;2.07
28803;BMP280;15949;55.656;37.422;2023-01-20T08:04:53;99616.91;;;2.06
28803;BMP280;15949;55.656;37.422;2023-01-20T08:09:59;99620.50;;;2.10
28803;BMP280;15949;55.656;37.422;2023-01-20T08:15:05;99622.03;;;2.11
28803;BMP280;15949;55.656;37.422;2023-01-20T08:20:11;99620.75;;;2.08
28803;BMP280;15949;55.656;37.422;2023-01-20T08:25:16;99631.25;;;2.12
28803;BMP280;15949;55.656;37.422;2023-01-20T08:30:22;99629.72;;;2.16
28803;BMP280;15949;55.656;37.422;2023-01-20T08:35:27;99627.09;;;2.21
28803;BMP280;15949;55.656;37.422;2023-01-20T08:40:33;99631.19;;;2.32
28803;BMP280;15949;55.656;37.422;2023-01-20T08:45:39;99645.31;;;2.34
28803;BMP280;15949;55.656;37.422;2023-01-20T08:50:44;99642.69;;;2.39
28803;BMP280;15949;55.656;37.422;2023-01-20T08:55:55;99638.09;;;2.36
28803;BMP280;15949;55.656;37.422;2023-01-20T09:01:06;99656.88;;;2.37
28803;BMP280;15949;55.656;37.422;2023-01-20T09:06:12;99658.88;;;2.40
28803;BMP280;15949;55.656;37.422;2023-01-20T09:11:20;99660.63;;;2.54
28803;BMP280;15949;55.656;37.422;2023-01-20T09:16:27;99672.72;;;2.54
28803;BMP280;15949;55.656;37.422;2023-01-20T09:21:32;99678.66;;;2.49
28803;BMP280;15949;55.656;37.422;2023-01-20T09:26:38;99674.28;;;2.50
28803;BMP280;15949;55.656;37.422;2023-01-20T09:31:54;99690.75;;;2.54
28803;BMP280;15949;55.656;37.422;2023-01-20T09:37:02;99677.59;;;2.56
28803;BMP280;15949;55.656;37.422;2023-01-20T09:48:12;99710.31;;;2.50
28803;BMP280;15949;55.656;37.422;2023-01-20T09:54:02;99706.66;;;2.56
28803;BMP280;15949;55.656;37.422;2023-01-20T09:59:15;99708.16;;;2.62
28803;BMP280;15949;55.656;37.422;2023-01-20T10:04:24;99707.13;;;2.68
28803;BMP280;15949;55.656;37.422;2023-01-20T10:10:20;99705.25;;;2.79
28803;BMP280;15949;55.656;37.422;2023-01-20T10:15:29;99705.50;;;2.82
28803;BMP280;15949;55.656;37.422;2023-01-20T10:20:45;99690.59;;;2.74
28803;BMP280;15949;55.656;37.422;2023-01-20T10:26:20;99703.72;;;2.73
28803;BMP280;15949;55.656;37.422;2023-01-20T10:31:32;99698.03;;;2.76
28803;BMP280;15949;55.656;37.422;2023-01-20T10:36:42;99702.56;;;2.94
28803;BMP280;15949;55.656;37.422;2023-01-20T10:41:53;99705.38;;;2.97
28803;BMP280;15949;55.656;37.422;2023-01-20T10:47:23;99712.31;;;2.97
28803;BMP280;15949;55.656;37.422;2023-01-20T10:58:01;99709.66;;;3.07
28803;BMP280;15949;55.656;37.422;2023-01-20T11:03:13;99709.22;;;3.00
28803;BMP280;15949;55.656;37.422;2023-01-20T11:08:26;99722.69;;;2.87
28803;BMP280;15949;55.656;37.422;2023-01-20T11:13:32;99729.69;;;2.76
28803;BMP280;15949;55.656;37.422;2023-01-20T11:18:37;99716.59;;;2.73
28803;BMP280;15949;55.656;37.422;2023-01-20T11:23:48;99712.72;;;2.75
28803;BMP280;15949;55.656;37.422;2023-01-20T11:34:28;99707.06;;;2.78
28803;BMP280;15949;55.656;37.422;2023-01-20T11:39:42;99720.88;;;2.87
28803;BMP280;15949;55.656;37.422;2023-01-20T11:50:26;99721.13;;;2.91
28803;BMP280;15949;55.656;37.422;2023-01-20T11:55:53;99732.19;;;2.91
28803;BMP280;15949;55.656;37.422;2023-01-20T12:01:05;99745.09;;;2.86
28803;BMP280;15949;55.656;37.422;2023-01-20T12:06:16;99760.34;;;2.78
28803;BMP280;15949;55.656;37.422;2023-01-20T12:11:27;99758.59;;;2.68
28803;BMP280;15949;55.656;37.422;2023-01-20T12:16:34;99767.88;;;2.64
28803;BMP280;15949;55.656;37.422;2023-01-20T12:21:43;99757.03;;;2.67
28803;BMP280;15949;55.656;37.422;2023-01-20T12:26:52;99756.03;;;2.63
28803;BMP280;15949;55.656;37.422;2023-01-20T12:31:58;99760.16;;;2.64
28803;BMP280;15949;55.656;37.422;2023-01-20T13:15:17;99806.03;;;2.42
28803;BMP280;15949;55.656;37.422;2023-01-20T13:20:26;99795.47;;;2.38
28803;BMP280;15949;55.656;37.422;2023-01-20T13:25:33;99790.38;;;2.28
28803;BMP280;15949;55.656;37.422;2023-01-20T13:30:42;99788.06;;;2.22
28803;BMP280;15949;55.656;37.422;2023-01-20T13:35:48;99791.72;;;2.16
28803;BMP280;15949;55.656;37.422;2023-01-20T13:40:57;99793.75;;;2.09
28803;BMP280;15949;55.656;37.422;2023-01-20T13:56:26;99797.88;;;2.10
28803;BMP280;15949;55.656;37.422;2023-01-20T14:01:32;99798.91;;;2.14
28803;BMP280;15949;55.656;37.422;2023-01-20T14:06:44;99812.28;;;2.16
28803;BMP280;15949;55.656;37.422;2023-01-20T14:11:55;99810.72;;;2.15
28803;BMP280;15949;55.656;37.422;2023-01-20T14:17:02;99808.66;;;2.12
28803;BMP280;15949;55.656;37.422;2023-01-20T14:22:23;99823.06;;;2.08
28803;BMP280;15949;55.656;37.422;2023-01-20T14:27:31;99830.75;;;2.08
28803;BMP280;15949;55.656;37.422;2023-01-20T14:32:39;99835.91;;;2.08
28803;BMP280;15949;55.656;37.422;2023-01-20T14:37:48;99844.16;;;1.99
28803;BMP280;15949;55.656;37.422;2023-01-20T14:42:59;99855.19;;;1.95
28803;BMP280;15949;55.656;37.422;2023-01-20T14:48:05;99878.59;;;1.88
28803;BMP280;15949;55.656;37.422;2023-01-20T14:53:12;99873.16;;;1.85
28803;BMP280;15949;55.656;37.422;2023-01-20T14:58:18;99872.16;;;1.81
28803;BMP280;15949;55.656;37.422;2023-01-20T15:03:25;99869.34;;;1.77
28803;BMP280;15949;55.656;37.422;2023-01-20T15:19:29;99897.84;;;1.71
28803;BMP280;15949;55.656;37.422;2023-01-20T15:24:36;99911.72;;;1.70
28803;BMP280;15949;55.656;37.422;2023-01-20T15:29:57;99928.94;;;1.64
28803;BMP280;15949;55.656;37.422;2023-01-20T15:35:03;99926.88;;;1.66
28803;BMP280;15949;55.656;37.422;2023-01-20T15:40:20;99929.97;;;1.63
28803;BMP280;15949;55.656;37.422;2023-01-20T15:45:25;99936.88;;;1.63
28803;BMP280;15949;55.656;37.422;2023-01-20T15:50:31;99948.44;;;1.60
28803;BMP280;15949;55.656;37.422;2023-01-20T15:55:50;99949.72;;;1.58
28803;BMP280;15949;55.656;37.422;2023-01-20T16:00:56;99946.63;;;1.56
28803;BMP280;15949;55.656;37.422;2023-01-20T16:06:08;99955.34;;;1.54
28803;BMP280;15949;55.656;37.422;2023-01-20T16:11:16;99963.31;;;1.53
28803;BMP280;15949;55.656;37.422;2023-01-20T16:16:23;99972.06;;;1.52
28803;BMP280;15949;55.656;37.422;2023-01-20T16:21:29;99992.09;;;1.55
28803;BMP280;15949;55.656;37.422;2023-01-20T16:26:34;99979.78;;;1.57
28803;BMP280;15949;55.656;37.422;2023-01-20T16:31:40;99987.50;;;1.62
28803;BMP280;15949;55.656;37.422;2023-01-20T16:36:45;99992.16;;;1.65
28803;BMP280;15949;55.656;37.422;2023-01-20T16:41:51;99995.72;;;1.64
28803;BMP280;15949;55.656;37.422;2023-01-20T16:46:57;100004.47;;;1.63
28803;BMP280;15949;55.656;37.422;2023-01-20T16:52:04;100009.06;;;1.56
28803;BMP280;15949;55.656;37.422;2023-01-20T16:57:10;100017.50;;;1.51
28803;BMP280;15949;55.656;37.422;2023-01-20T17:02:15;100018.75;;;1.49
28803;BMP280;15949;55.656;37.422;2023-01-20T17:07:21;100034.16;;;1.49
28803;BMP280;15949;55.656;37.422;2023-01-20T17:12:27;100033.69;;;1.52
28803;BMP280;15949;55.656;37.422;2023-01-20T17:17:32;100030.06;;;1.43
28803;BMP280;15949;55.656;37.422;2023-01-20T17:22:42;100031.09;;;1.42
28803;BMP280;15949;55.656;37.422;2023-01-20T17:27:48;100042.91;;;1.43
28803;BMP280;15949;55.656;37.422;2023-01-20T17:32:54;100056.22;;;1.45
28803;BMP280;15949;55.656;37.422;2023-01-20T17:37:59;100053.44;;;1.46
28803;BMP280;15949;55.656;37.422;2023-01-20T17:43:05;100045.75;;;1.51
28803;BMP280;15949;55.656;37.422;2023-01-20T17:48:10;100066.06;;;1.53
28803;BMP280;15949;55.656;37.422;2023-01-20T17:53:16;100060.44;;;1.56
28803;BMP280;15949;55.656;37.422;2023-01-20T17:58:22;100062.72;;;1.58
28803;BMP280;15949;55.656;37.422;2023-01-20T18:03:27;100069.44;;;1.59
28803;BMP280;15949;55.656;37.422;2023-01-20T18:08:33;100090.75;;;1.59
28803;BMP280;15949;55.656;37.422;2023-01-20T18:13:40;100098.22;;;1.61
28803;BMP280;15949;55.656;37.422;2023-01-20T18:18:47;100094.34;;;1.58
28803;BMP280;15949;55.656;37.422;2023-01-20T18:23:52;100094.84;;;1.55
28803;BMP280;15949;55.656;37.422;2023-01-20T18:29:00;100096.91;;;1.58
28803;BMP280;15949;55.656;37.422;2023-01-20T18:34:09;100093.81;;;1.56
28803;BMP280;15949;55.656;37.422;2023-01-20T18:39:20;100097.94;;;1.57
28803;BMP280;15949;55.656;37.422;2023-01-20T18:44:26;100105.13;;;1.55
28803;BMP280;15949;55.656;37.422;2023-01-20T18:49:31;100119.25;;;1.52
28803;BMP280;15949;55.656;37.422;2023-01-20T18:54:37;100128.97;;;1.50
28803;BMP280;15949;55.656;37.422;2023-01-20T18:59:43;100144.19;;;1.57
28803;BMP280;15949;55.656;37.422;2023-01-20T19:04:48;100156.00;;;1.58
28803;BMP280;15949;55.656;37.422;2023-01-20T19:09:54;100160.13;;;1.59
28803;BMP280;15949;55.656;37.422;2023-01-20T19:14:59;100159.59;;;1.57
28803;BMP280;15949;55.656;37.422;2023-01-20T19:20:05;100157.47;;;1.49
28803;BMP280;15949;55.656;37.422;2023-01-20T19:25:11;100162.84;;;1.42
28803;BMP280;15949;55.656;37.422;2023-01-20T19:30:17;100166.38;;;1.36
28803;BMP280;15949;55.656;37.422;2023-01-20T19:35:22;100168.13;;;1.31
28803;BMP280;15949;55.656;37.422;2023-01-20T19:40:28;100185.03;;;1.27
28803;BMP280;15949;55.656;37.422;2023-01-20T19:45:36;100220.19;;;1.26
28803;BMP280;15949;55.656;37.422;2023-01-20T19:50:42;100220.72;;;1.23
28803;BMP280;15949;55.656;37.422;2023-01-20T19:55:48;100222.94;;;1.15
28803;BMP280;15949;55.656;37.422;2023-01-20T20:00:54;100231.19;;;1.17
28803;BMP280;15949;55.656;37.422;2023-01-20T20:06:00;100227.00;;;1.11
28803;BMP280;15949;55.656;37.422;2023-01-20T20:11:09;100235.19;;;1.08
28803;BMP280;15949;55.656;37.422;2023-01-20T20:16:14;100250.06;;;1.05
28803;BMP280;15949;55.656;37.422;2023-01-20T20:21:20;100250.28;;;1.04
28803;BMP280;15949;55.656;37.422;2023-01-20T20:26:31;100257.19;;;0.98
28803;BMP280;15949;55.656;37.422;2023-01-20T20:31:38;100255.66;;;0.97
28803;BMP280;15949;55.656;37.422;2023-01-20T20:36:44;100260.00;;;0.97
28803;BMP280;15949;55.656;37.422;2023-01-20T20:41:50;100275.94;;;0.99
28803;BMP280;15949;55.656;37.422;2023-01-20T20:46:55;100276.47;;;1.01
28803;BMP280;15949;55.656;37.422;2023-01-20T20:52:02;100291.50;;;0.92
28803;BMP280;15949;55.656;37.422;2023-01-20T20:57:07;100296.09;;;0.90
28803;BMP280;15949;55.656;37.422;2023-01-20T21:02:13;100300.47;;;0.90
28803;BMP280;15949;55.656;37.422;2023-01-20T21:07:19;100330.13;;;0.81
28803;BMP280;15949;55.656;37.422;2023-01-20T21:12:24;100320.84;;;0.80
28803;BMP280;15949;55.656;37.422;2023-01-20T21:17:30;100328.75;;;0.73
28803;BMP280;15949;55.656;37.422;2023-01-20T21:22:36;100342.53;;;0.67
28803;BMP280;15949;55.656;37.422;2023-01-20T21:27:42;100337.63;;;0.66
28803;BMP280;15949;55.656;37.422;2023-01-20T21:32:48;100350.16;;;0.62
28803;BMP280;15949;55.656;37.422;2023-01-20T21:37:53;100364.66;;;0.56
28803;BMP280;15949;55.656;37.422;2023-01-20T21:42:59;100367.25;;;0.56
28803;BMP280;15949;55.656;37.422;2023-01-20T21:48:24;100377.19;;;0.53
28803;BMP280;15949;55.656;37.422;2023-01-20T21:53:51;100383.56;;;0.50
28803;BMP280;15949;55.656;37.422;2023-01-20T21:58:57;100385.31;;;0.45
28803;BMP280;15949;55.656;37.422;2023-01-20T22:04:02;100391.97;;;0.46
28803;BMP280;15949;55.656;37.422;2023-01-20T22:09:09;100393.06;;;0.50
28803;BMP280;15949;55.656;37.422;2023-01-20T22:14:14;100389.09;;;0.42
28803;BMP280;15949;55.656;37.422;2023-01-20T22:19:20;100397.56;;;0.43
28803;BMP280;15949;55.656;37.422;2023-01-20T22:24:26;100399.50;;;0.36
28803;BMP280;15949;55.656;37.422;2023-01-20T22:29:31;100404.78;;;0.29
28803;BMP280;15949;55.656;37.422;2023-01-20T22:34:37;100418.84;;;0.27
28803;BMP280;15949;55.656;37.422;2023-01-20T22:39:42;100421.34;;;0.22
28803;BMP280;15949;55.656;37.422;2023-01-20T22:44:48;100429.16;;;0.15
28803;BMP280;15949;55.656;37.422;2023-01-20T22:49:54;100437.06;;;0.14
28803;BMP280;15949;55.656;37.422;2023-01-20T22:55:01;100443.44;;;0.11
28803;BMP280;15949;55.656;37.422;2023-01-20T23:00:07;100452.00;;;0.17
28803;BMP280;15949;55.656;37.422;2023-01-20T23:05:13;100452.00;;;0.17
28803;BMP280;15949;55.656;37.422;2023-01-20T23:10:18;100454.47;;;0.12
28803;BMP280;15949;55.656;37.422;2023-01-20T23:15:43;100463.63;;;0.07
28803;BMP280;15949;55.656;37.422;2023-01-20T23:20:50;100460.06;;;0.08
28803;BMP280;15949;55.656;37.422;2023-01-20T23:26:04;100455.94;;;0.07
28803;BMP280;15949;55.656;37.422;2023-01-20T23:31:12;100465.31;;;0.02
28803;BMP280;15949;55.656;37.422;2023-01-20T23:36:24;100467.56;;;-0.02
28803;BMP280;15949;55.656;37.422;2023-01-20T23:41:30;100474.16;;;-0.06
28803;BMP280;15949;55.656;37.422;2023-01-20T23:46:35;100472.97;;;-0.15
28803;BMP280;15949;55.656;37.422;2023-01-20T23:51:41;100489.81;;;-0.19
28803;BMP280;15949;55.656;37.422;2023-01-20T23:56:46;100502.38;;;-0.17
